Time;durP1;ratioP1;P1;durP2;ratioP2;P2;SDS_P1;SDS_P2;PMS_P1;PMS_P2;Temp;Humidity;BMP_temperature;BMP_pressure;BME280_temperature;BME280_humidity;BME280_pressure;Samples;Min_cycle;Max_cycle;Signal;HPM_P1;HPM_P2
2022/05/23 00:01:24;;;;;;;;;;;;;;;-144.99;97.57;52325.81;4970710;28;19934;-76
2022/05/23 00:03:52;;;;;;;;;;;;;;;-144.99;97.04;52291.16;4970793;28;20001;-76
2022/05/23 00:06:20;;;;;;;;;;;;;;;-144.99;96.68;52307.47;4970195;28;19926;-76
2022/05/23 00:08:47;;;;;;;;;;;;;;;-144.99;95.89;52329.88;4978999;28;20001;-77
2022/05/23 00:11:13;;;;;;;;;;;;;;;-144.99;95.67;52325.81;4994250;28;19926;-77
2022/05/23 00:13:39;;;;;;;;;;;;;;;-144.99;95.89;52329.88;4980992;28;19926;-76
2022/05/23 00:16:06;;;;;;;;;;;;;;;-144.99;97.65;52313.56;4971382;28;19926;-75
2022/05/23 00:18:33;;;;;;;;;;;;;;;-144.99;97.78;52280.97;4971332;28;19933;-75
2022/05/23 00:21:00;;;;;;;;;;;;;;;-144.99;98.15;52342.09;4970708;28;19926;-75
2022/05/23 00:23:27;;;;;;;;;;;;;;;-144.99;98.38;52285.03;4963688;28;19926;-74
2022/05/23 00:25:54;;;;;;;;;;;;;;;-144.99;99.28;52287.06;4972390;28;19941;-75
2022/05/23 00:28:20;;;;;;;;;;;;;;;-144.99;98.65;52301.34;4970372;28;19985;-75
2022/05/23 00:30:47;;;;;;;;;;;;;;;-144.99;99.20;52309.50;4970636;28;19926;-75
2022/05/23 00:35:57;;;;;;;;;;;;;;;-144.99;99.39;52276.88;4974282;28;20077;-74
2022/05/23 00:38:25;;;;;;;;;;;;;;;-144.99;98.80;52358.41;4970830;28;19937;-74
2022/05/23 00:43:13;;;;;;;;;;;;;;;-144.99;99.45;52333.94;4970521;28;19927;-75
2022/05/23 00:43:43;;;;;;;;;;;;;;;-144.99;99.60;52313.56;4964813;28;20147;-74
2022/05/23 00:46:11;;;;;;;;;;;;;;;-144.99;99.32;52319.69;4975501;28;20029;-74
2022/05/23 00:48:37;;;;;;;;;;;;;;;-144.99;99.54;52344.16;4970556;28;19926;-74
2022/05/23 00:51:07;;;;;;;;;;;;;;;-144.99;99.55;52291.16;4973779;28;19960;-74
2022/05/23 00:53:36;;;;;;;;;;;;;;;-144.99;99.15;52301.34;4993903;28;19930;-76
2022/05/23 00:56:06;;;;;;;;;;;;;;;-144.99;99.34;52309.50;4986929;28;19926;-76
2022/05/23 00:58:33;;;;;;;;;;;;;;;-144.99;99.15;52297.25;4978082;28;19934;-76
2022/05/23 01:01:02;;;;;;;;;;;;;;;-144.99;98.86;52252.44;4978577;28;19934;-77
2022/05/23 01:03:28;;;;;;;;;;;;;;;-144.99;98.84;52305.41;4970295;28;20013;-77
2022/05/23 01:05:55;;;;;;;;;;;;;;;-144.99;98.46;52301.34;4977773;28;20443;-75
2022/05/23 01:08:21;;;;;;;;;;;;;;;-144.99;97.61;52280.97;4977826;28;19934;-77
2022/05/23 01:10:49;;;;;;;;;;;;;;;-144.99;97.52;52303.38;4979789;28;19926;-77
2022/05/23 01:13:16;;;;;;;;;;;;;;;-144.99;97.36;52301.34;4975717;28;19932;-77
2022/05/23 01:15:44;;;;;;;;;;;;;;;-144.99;96.41;52293.19;4974413;28;19949;-77
2022/05/23 01:18:10;;;;;;;;;;;;;;;-144.99;95.85;52313.56;4973791;28;19926;-76
2022/05/23 01:20:37;;;;;;;;;;;;;;;-144.99;96.05;52280.97;4973265;28;19938;-77
2022/05/23 01:23:08;;;;;;;;;;;;;;;-144.99;95.96;52325.81;4973373;28;19927;-78
2022/05/23 01:25:36;;;;;;;;;;;;;;;-144.99;95.28;52325.81;4972357;28;19938;-77
2022/05/23 01:28:03;;;;;;;;;;;;;;;-144.99;95.62;52305.41;4975239;28;19933;-77
2022/05/23 01:30:31;;;;;;;;;;;;;;;-144.99;94.63;52295.22;4973766;28;19933;-77
2022/05/23 01:32:57;;;;;;;;;;;;;;;-144.99;93.79;52313.56;4973055;28;19926;-77
2022/05/23 01:35:24;;;;;;;;;;;;;;;-144.99;93.86;52342.09;4973130;28;19926;-76
2022/05/23 01:37:50;;;;;;;;;;;;;;;-144.99;93.63;52313.56;4973047;28;19926;-77
2022/05/23 01:40:17;;;;;;;;;;;;;;;-144.99;94.45;52289.13;4972896;28;19926;-76
2022/05/23 01:42:45;;;;;;;;;;;;;;;-144.99;94.20;52309.50;4972865;28;19937;-77
2022/05/23 01:45:12;;;;;;;;;;;;;;;-144.99;94.10;52280.97;4974264;28;19930;-79
2022/05/23 01:47:39;;;;;;;;;;;;;;;-144.99;94.59;52321.72;4975997;28;19926;-79
2022/05/23 01:50:06;;;;;;;;;;;;;;;-144.99;94.66;52303.38;4977083;28;19949;-79
2022/05/23 01:52:32;;;;;;;;;;;;;;;-144.99;94.70;52293.19;4974816;28;19933;-79
2022/05/23 01:54:59;;;;;;;;;;;;;;;-144.99;94.66;52313.56;4976862;28;19957;-78
2022/05/23 01:57:25;;;;;;;;;;;;;;;-144.99;96.10;52305.41;4976339;28;19930;-77
2022/05/23 02:02:36;;;;;;;;;;;;;;;-144.99;96.17;52325.81;4975726;28;19933;-79
2022/05/23 02:05:03;;;;;;;;;;;;;;;-144.99;96.03;52260.56;4973846;28;20405;-75
2022/05/23 02:07:30;;;;;;;;;;;;;;;-144.99;95.56;52297.25;4973404;28;19926;-79
2022/05/23 02:09:56;;;;;;;;;;;;;;;-144.99;95.14;52313.56;4973700;28;20024;-78
2022/05/23 02:12:22;;;;;;;;;;;;;;;-144.99;94.66;52309.50;4972890;28;20032;-78
2022/05/23 02:14:49;;;;;;;;;;;;;;;-144.99;94.97;52289.13;4974316;28;19926;-76
2022/05/23 02:17:17;;;;;;;;;;;;;;;-144.99;95.81;52333.94;4978116;28;19925;-78
2022/05/23 02:19:44;;;;;;;;;;;;;;;-144.99;96.44;52309.50;4991505;28;19959;-81
2022/05/23 02:22:10;;;;;;;;;;;;;;;-144.99;96.01;52309.50;4975192;28;19926;-78
2022/05/23 02:24:36;;;;;;;;;;;;;;;-144.99;96.93;52329.88;4969996;28;19933;-78
2022/05/23 02:27:03;;;;;;;;;;;;;;;-144.99;96.73;52276.88;4975436;28;20413;-78
2022/05/23 02:29:29;;;;;;;;;;;;;;;-144.99;96.93;52317.66;4972600;28;19949;-77
2022/05/23 02:31:55;;;;;;;;;;;;;;;-144.99;96.71;52301.34;4971987;28;19971;-78
2022/05/23 02:34:23;;;;;;;;;;;;;;;-144.99;96.16;52289.13;4972065;28;19937;-77
2022/05/23 02:36:50;;;;;;;;;;;;;;;-144.99;96.38;52285.03;4975321;28;19926;-77
2022/05/23 02:39:16;;;;;;;;;;;;;;;-144.99;96.17;52325.81;4970740;28;20307;-78
2022/05/23 02:41:43;;;;;;;;;;;;;;;-144.99;96.06;52321.72;4971677;28;19926;-77
2022/05/23 02:44:09;;;;;;;;;;;;;;;-144.99;96.91;52297.25;4972352;28;19933;-76
2022/05/23 02:46:36;;;;;;;;;;;;;;;-144.99;98.09;52297.25;4974743;28;19930;-76
2022/05/23 02:49:02;;;;;;;;;;;;;;;-144.99;97.49;52280.97;4971889;28;20025;-76
2022/05/23 02:51:30;;;;;;;;;;;;;;;-144.99;97.05;52331.91;4971815;28;19934;-75
2022/05/23 02:53:56;;;;;;;;;;;;;;;-144.99;97.18;52309.50;4975161;28;20054;-76
2022/05/23 02:56:22;;;;;;;;;;;;;;;-144.99;97.51;52313.56;4970499;28;19926;-76
2022/05/23 02:58:49;;;;;;;;;;;;;;;-144.99;97.41;52301.34;4976889;28;19937;-77
2022/05/23 03:01:15;;;;;;;;;;;;;;;-144.99;98.00;52289.13;4995628;28;20178;-75
2022/05/23 03:03:41;;;;;;;;;;;;;;;-144.99;98.07;52313.56;4983403;28;20374;-75
2022/05/23 03:06:08;;;;;;;;;;;;;;;-144.99;98.04;52297.25;4970656;28;19932;-74
2022/05/23 03:08:36;;;;;;;;;;;;;;;-144.99;98.44;52289.13;4970914;28;19930;-76
2022/05/23 03:11:04;;;;;;;;;;;;;;;-144.99;98.38;52317.66;4971294;28;20266;-75
2022/05/23 03:13:30;;;;;;;;;;;;;;;-144.99;98.17;52289.13;4971142;28;19934;-75
2022/05/23 03:15:57;;;;;;;;;;;;;;;-144.99;99.20;52309.50;4974265;28;19984;-74
2022/05/23 03:18:25;;;;;;;;;;;;;;;-144.99;99.38;52293.19;4970681;28;20401;-74
2022/05/23 03:20:55;;;;;;;;;;;;;;;-144.99;98.88;52289.13;4969949;28;19981;-75
2022/05/23 03:28:52;;;;;;;;;;;;;;;-144.99;98.77;52317.66;4969915;28;20318;-74
2022/05/23 03:31:19;;;;;;;;;;;;;;;-144.99;99.17;52301.34;4970916;28;19927;-75
2022/05/23 03:33:45;;;;;;;;;;;;;;;-144.99;99.79;52354.34;4969980;28;19926;-74
2022/05/23 03:36:11;;;;;;;;;;;;;;;-144.99;99.58;52285.03;4968785;28;19933;-76
2022/05/23 03:38:38;;;;;;;;;;;;;;;-144.99;99.55;52311.53;4970861;28;20019;-74
2022/05/23 03:41:09;;;;;;;;;;;;;;;-144.99;99.13;52297.25;4971208;28;19933;-74
2022/05/23 03:43:36;;;;;;;;;;;;;;;-144.99;99.11;52285.03;4985843;28;19925;-76
2022/05/23 03:46:06;;;;;;;;;;;;;;;-144.99;99.55;52305.41;4995357;28;19930;-78
2022/05/23 03:48:32;;;;;;;;;;;;;;;-144.99;98.97;52313.56;4977632;28;19930;-80
2022/05/23 03:50:59;;;;;;;;;;;;;;;-144.99;99.29;52289.13;4985337;28;19933;-77
2022/05/23 03:53:26;;;;;;;;;;;;;;;-144.99;99.33;52297.25;4974651;28;19942;-77
2022/05/23 03:55:52;;;;;;;;;;;;;;;-144.99;99.56;52317.66;4971059;28;20377;-76
2022/05/23 03:58:20;;;;;;;;;;;;;;;-144.99;99.33;52305.41;4966689;28;20046;-76
2022/05/23 04:00:49;;;;;;;;;;;;;;;-144.99;98.93;52293.19;4971481;28;19930;-76
2022/05/23 04:03:15;;;;;;;;;;;;;;;-144.99;98.20;52313.56;4970733;28;19926;-77
2022/05/23 04:05:42;;;;;;;;;;;;;;;-144.99;98.39;52352.28;4971217;28;19942;-75
2022/05/23 04:08:09;;;;;;;;;;;;;;;-144.99;97.83;52329.88;4970610;28;19980;-77
2022/05/23 04:10:35;;;;;;;;;;;;;;;-144.99;97.96;52329.88;4971873;28;19927;-77
2022/05/23 04:13:02;;;;;;;;;;;;;;;-144.99;98.04;52338.03;4970097;28;19934;-77
2022/05/23 04:15:30;;;;;;;;;;;;;;;-144.99;97.87;52327.84;4971172;28;20412;-77
2022/05/23 04:17:57;;;;;;;;;;;;;;;-144.99;98.54;52315.59;4970719;28;20293;-77
2022/05/23 04:20:23;;;;;;;;;;;;;;;-144.99;97.87;52317.66;4971874;28;19958;-77
2022/05/23 04:22:49;;;;;;;;;;;;;;;-144.99;98.08;52342.09;4970132;28;20405;-75
2022/05/23 04:25:15;;;;;;;;;;;;;;;-144.99;98.16;52313.56;4971879;28;19946;-76
2022/05/23 04:27:42;;;;;;;;;;;;;;;-144.99;98.69;52317.66;4974074;28;19937;-75
2022/05/23 04:30:09;;;;;;;;;;;;;;;-144.99;98.74;52325.81;4973247;28;20392;-75
2022/05/23 04:35:22;;;;;;;;;;;;;;;-144.99;97.49;52315.59;4974093;28;20427;-75
2022/05/23 04:37:49;;;;;;;;;;;;;;;-144.99;96.74;52289.13;4973587;28;20407;-75
2022/05/23 04:40:17;;;;;;;;;;;;;;;-144.99;95.15;52295.22;4975348;28;19933;-76
2022/05/23 04:42:43;;;;;;;;;;;;;;;-144.99;93.68;52333.94;4974339;28;20301;-74
2022/05/23 04:45:10;;;;;;;;;;;;;;;-144.99;91.93;52293.19;4974364;28;20410;-74
2022/05/23 04:50:22;;;;;;;;;;;;;;;-144.99;88.83;52319.69;4973947;28;19926;-74
2022/05/23 04:52:48;;;;;;;;;;;;;;;-144.99;86.92;52260.56;4989156;28;20283;-74
2022/05/23 04:55:15;;;;;;;;;;;;;;;-144.99;84.80;52299.31;4291389;28;10020743;-75
2022/05/23 04:57:41;;;;;;;;;;;;;;;-144.99;84.12;52323.75;4971904;28;19929;-73
2022/05/23 05:00:10;;;;;;;;;;;;;;;-144.99;81.98;52254.47;4983273;28;19914;-76
2022/05/23 05:02:38;;;;;;;;;;;;;;;-144.99;81.21;52321.72;4979687;28;19926;-74
2022/05/23 05:05:05;;;;;;;;;;;;;;;-144.99;80.88;52289.13;4973121;28;20021;-75
2022/05/23 05:07:31;;;;;;;;;;;;;;;-144.99;80.78;52297.25;4985255;28;19933;-78
2022/05/23 05:09:58;;;;;;;;;;;;;;;-144.99;79.98;52309.50;4993675;28;19934;-75
2022/05/23 05:12:24;;;;;;;;;;;;;;;-144.99;79.98;52276.88;4979712;28;19937;-76
2022/05/23 05:14:51;;;;;;;;;;;;;;;-144.99;79.40;52313.56;4972988;28;20397;-76
2022/05/23 05:17:17;;;;;;;;;;;;;;;-144.99;79.23;52305.41;4978141;28;19929;-76
2022/05/23 05:19:45;;;;;;;;;;;;;;;-144.99;78.06;52297.25;4987781;28;19934;-75
2022/05/23 05:22:11;;;;;;;;;;;;;;;-144.99;77.70;52268.72;4974969;28;19930;-75
2022/05/23 05:24:37;;;;;;;;;;;;;;;-144.99;76.68;52293.19;4978365;28;19926;-75
2022/05/23 05:27:04;;;;;;;;;;;;;;;-144.99;75.60;52266.69;4974453;28;19954;-75
2022/05/23 05:29:30;;;;;;;;;;;;;;;-144.99;74.70;52305.41;4979762;28;19930;-78
2022/05/23 05:32:00;;;;;;;;;;;;;;;-144.99;73.48;52256.50;4990301;28;19937;-77
2022/05/23 05:34:30;;;;;;;;;;;;;;;-144.99;72.83;52301.34;4980978;28;19930;-76
2022/05/23 05:37:03;;;;;;;;;;;;;;;-144.99;72.01;52289.13;4984345;28;19926;-78
2022/05/23 05:39:31;;;;;;;;;;;;;;;-144.99;70.97;52283.00;4990355;28;19934;-79
2022/05/23 05:42:01;;;;;;;;;;;;;;;-144.99;70.05;52264.66;4990537;28;19930;-78
2022/05/23 05:44:30;;;;;;;;;;;;;;;-144.99;69.55;52260.56;4977258;28;19930;-78
2022/05/23 05:46:59;;;;;;;;;;;;;;;-144.99;69.31;52264.66;4991214;28;19930;-78
2022/05/23 05:49:26;;;;;;;;;;;;;;;-144.99;68.52;52276.88;4993408;28;19934;-80
2022/05/23 05:51:55;;;;;;;;;;;;;;;-144.99;68.16;52280.97;4992924;28;19914;-79
2022/05/23 05:54:25;;;;;;;;;;;;;;;-144.99;67.81;52285.03;4997214;28;19940;-79
2022/05/23 05:56:53;;;;;;;;;;;;;;;-144.99;66.34;52227.97;4987550;28;19937;-78
2022/05/23 05:59:19;;;;;;;;;;;;;;;-144.99;66.06;52262.63;4988606;28;19937;-79
2022/05/23 06:01:46;;;;;;;;;;;;;;;-144.99;65.79;52289.13;4987491;28;19937;-79
2022/05/23 06:04:12;;;;;;;;;;;;;;;-144.99;65.47;52232.03;4990518;28;19913;-79
2022/05/23 06:12:08;;;;;;;;;;;;;;;-144.99;61.59;52260.56;4985032;28;19941;-80
2022/05/23 06:14:34;;;;;;;;;;;;;;;-144.99;60.96;52244.28;4991953;28;19930;-80
2022/05/23 06:17:01;;;;;;;;;;;;;;;-144.99;59.41;52252.44;4991751;28;19946;-79
2022/05/23 06:19:27;;;;;;;;;;;;;;;-144.99;59.12;52260.56;4991648;28;19926;-80
2022/05/23 06:21:53;;;;;;;;;;;;;;;-144.99;59.11;52276.88;4986716;28;19941;-79
2022/05/23 06:24:20;;;;;;;;;;;;;;;-144.99;58.59;52256.50;4970655;28;19945;-78
2022/05/23 06:26:47;;;;;;;;;;;;;;;-144.99;57.58;52297.25;4973446;28;19930;-78
2022/05/23 06:29:13;;;;;;;;;;;;;;;-144.99;56.94;52221.84;4970771;28;19933;-79
2022/05/23 06:31:40;;;;;;;;;;;;;;;-144.99;56.77;52203.50;4977658;28;19934;-79
2022/05/23 06:34:06;;;;;;;;;;;;;;;-144.99;56.20;52270.78;4997499;28;19914;-81
2022/05/23 06:36:33;;;;;;;;;;;;;;;-144.99;56.27;52227.97;4973160;28;19934;-78
2022/05/23 06:38:59;;;;;;;;;;;;;;;-144.99;54.75;52232.03;4969455;28;20294;-78
2022/05/23 06:41:27;;;;;;;;;;;;;;;-144.99;54.55;52221.84;4969488;28;19941;-79
2022/05/23 06:43:54;;;;;;;;;;;;;;;-144.99;53.81;52232.03;4967461;28;19930;-77
2022/05/23 06:46:21;;;;;;;;;;;;;;;-144.99;52.94;52244.28;4970573;28;19934;-79
2022/05/23 06:48:47;;;;;;;;;;;;;;;-144.99;52.86;52256.50;4968833;28;19930;-78
2022/05/23 06:51:14;;;;;;;;;;;;;;;-144.99;52.68;52223.88;4968080;28;20333;-78
2022/05/23 06:53:40;;;;;;;;;;;;;;;-144.99;52.47;52240.19;4967705;28;19926;-77
2022/05/23 06:56:07;;;;;;;;;;;;;;;-144.99;51.72;52183.13;4971552;28;19930;-78
2022/05/23 06:58:33;;;;;;;;;;;;;;;-144.99;51.29;52244.28;4969946;28;19926;-79
2022/05/23 07:01:01;;;;;;;;;;;;;;;-144.99;50.76;52211.66;4970590;28;20448;-77
2022/05/23 07:03:27;;;;;;;;;;;;;;;-144.99;50.01;52260.56;4970910;28;19934;-77
2022/05/23 07:14:05;;;;;;;;;;;;;;;-144.99;50.78;52203.50;4975269;28;19937;-78
2022/05/23 07:16:33;;;;;;;;;;;;;;;-144.99;50.84;52215.75;4976996;28;19930;-78
2022/05/23 07:19:00;;;;;;;;;;;;;;;-144.99;50.01;52211.66;4962524;28;20010;-75
2022/05/23 07:21:26;;;;;;;;;;;;;;;-144.99;48.93;52170.91;4961422;28;19926;-76
2022/05/23 07:23:52;;;;;;;;;;;;;;;-144.99;48.33;52219.81;4971241;28;20436;-80
2022/05/23 07:26:19;;;;;;;;;;;;;;;-144.99;48.30;52207.59;4974800;28;19944;-80
2022/05/23 07:28:46;;;;;;;;;;;;;;;-144.99;48.42;52221.84;4979952;28;19937;-80
2022/05/23 07:31:13;;;;;;;;;;;;;;;-144.99;49.04;52223.88;4976120;28;19937;-83
2022/05/23 07:33:41;;;;;;;;;;;;;;;-144.99;49.04;52201.47;4972274;28;19930;-83
2022/05/23 07:36:09;;;;;;;;;;;;;;;-144.99;49.51;52244.28;4986264;28;19914;-82
2022/05/23 07:38:37;;;;;;;;;;;;;;;-144.99;49.36;52199.44;4975844;28;20036;-80
2022/05/23 07:41:04;;;;;;;;;;;;;;;-144.99;49.63;52256.50;4975604;28;20030;-79
2022/05/23 07:43:35;;;;;;;;;;;;;;;-144.99;48.75;52195.34;4975327;28;19942;-78
2022/05/23 07:46:06;;;;;;;;;;;;;;;-144.99;47.88;52227.97;4976269;28;19933;-80
2022/05/23 07:48:33;;;;;;;;;;;;;;;-144.99;47.59;52195.34;4966287;28;20397;-78
2022/05/23 07:51:00;;;;;;;;;;;;;;;-144.99;47.86;52211.66;4972520;28;19941;-78
2022/05/23 08:01:39;;;;;;;;;;;;;;;-144.99;47.34;52187.19;4976019;28;20448;-78
2022/05/23 08:04:07;;;;;;;;;;;;;;;-144.99;47.56;52166.81;4975904;28;20381;-79
2022/05/23 08:06:35;;;;;;;;;;;;;;;-144.99;47.58;52207.59;4975487;28;19965;-80
2022/05/23 08:09:01;;;;;;;;;;;;;;;-144.99;47.21;52232.03;4988855;28;19936;-80
2022/05/23 08:11:28;;;;;;;;;;;;;;;-144.99;47.09;52179.06;4981233;28;19941;-77
2022/05/23 08:13:56;;;;;;;;;;;;;;;-144.99;47.15;52174.97;4978070;28;20029;-80
2022/05/23 08:16:22;;;;;;;;;;;;;;;-144.99;47.00;52211.66;4975880;28;20146;-79
2022/05/23 08:18:49;;;;;;;;;;;;;;;-144.99;46.91;52195.34;4975046;28;19930;-79
2022/05/23 08:21:16;;;;;;;;;;;;;;;-144.99;46.36;52174.97;4974733;28;19926;-79
2022/05/23 08:23:44;;;;;;;;;;;;;;;-144.99;46.04;52179.06;4974495;28;19940;-81
2022/05/23 08:26:10;;;;;;;;;;;;;;;-144.99;46.13;52174.97;4974387;28;19930;-79
2022/05/23 08:28:37;;;;;;;;;;;;;;;-144.99;46.26;52211.66;4976405;28;19933;-80
2022/05/23 08:31:03;;;;;;;;;;;;;;;-144.99;46.34;52193.31;4979489;28;19937;-80
2022/05/23 08:33:29;;;;;;;;;;;;;;;-144.99;46.08;52193.31;4976958;28;20406;-80
2022/05/23 08:35:56;;;;;;;;;;;;;;;-144.99;46.68;52138.28;4976830;28;20110;-79
2022/05/23 08:38:22;;;;;;;;;;;;;;;-144.99;45.41;52179.06;4977775;28;20352;-78
2022/05/23 08:40:58;;;;;;;;;;;;;;;-144.99;45.21;52174.97;4994368;28;19914;-80
2022/05/23 08:43:27;;;;;;;;;;;;;;;-144.99;44.82;52146.44;4985099;28;19938;-79
2022/05/23 08:45:56;;;;;;;;;;;;;;;-144.99;45.35;52152.56;4976460;28;19934;-80
2022/05/23 08:48:27;;;;;;;;;;;;;;;-144.99;45.47;52179.06;4975999;28;19926;-80
2022/05/23 08:50:56;;;;;;;;;;;;;;;-144.99;45.02;52170.91;4977853;28;20433;-80
2022/05/23 08:53:26;;;;;;;;;;;;;;;-144.99;45.32;52187.19;4974532;28;19931;-80
2022/05/23 08:56:05;;;;;;;;;;;;;;;-144.99;45.02;52191.28;4972987;28;19930;-79
2022/05/23 08:58:34;;;;;;;;;;;;;;;-144.99;44.41;52166.81;4976257;28;19930;-78
2022/05/23 09:01:03;;;;;;;;;;;;;;;-144.99;44.81;52154.59;4968886;28;19926;-79
2022/05/23 09:03:31;;;;;;;;;;;;;;;-144.99;44.55;52146.44;4972154;28;19937;-79
2022/05/23 09:06:01;;;;;;;;;;;;;;;-144.99;44.37;52174.97;4973831;28;20301;-79
2022/05/23 09:08:29;;;;;;;;;;;;;;;-144.99;44.85;52142.38;4972217;28;19930;-79
2022/05/23 09:10:59;;;;;;;;;;;;;;;-144.99;44.90;52140.31;4973288;28;19930;-79
2022/05/23 09:13:27;;;;;;;;;;;;;;;-144.99;44.81;52197.41;4974713;28;20007;-79
2022/05/23 09:15:56;;;;;;;;;;;;;;;-144.99;44.86;52150.53;4980737;28;19930;-80
2022/05/23 09:18:24;;;;;;;;;;;;;;;-144.99;45.10;52183.13;4975380;28;19973;-79
2022/05/23 09:20:52;;;;;;;;;;;;;;;-144.99;45.12;52126.06;4979336;28;19970;-79
2022/05/23 09:23:25;;;;;;;;;;;;;;;-144.99;45.16;52105.69;4986790;28;19925;-76
2022/05/23 09:25:51;;;;;;;;;;;;;;;-144.99;44.17;52154.59;4987802;28;19959;-79
2022/05/23 09:28:23;;;;;;;;;;;;;;;-144.99;44.16;52156.63;4963317;28;20286;-79
2022/05/23 09:30:56;;;;;;;;;;;;;;;-144.99;43.99;52101.59;4972170;28;19926;-79
2022/05/23 09:33:23;;;;;;;;;;;;;;;-144.99;43.73;52126.06;4971692;28;20325;-79
2022/05/23 09:35:51;;;;;;;;;;;;;;;-144.99;43.04;52130.13;4973312;28;19926;-79
2022/05/23 09:38:19;;;;;;;;;;;;;;;-144.99;43.44;52158.66;4981069;28;19926;-79
2022/05/23 09:40:46;;;;;;;;;;;;;;;-144.99;43.17;52113.84;4970664;28;20009;-78
2022/05/23 09:49:01;;;;;;;;;;;;;;;-144.99;41.49;52097.53;4977497;28;20368;-80
2022/05/23 09:51:28;;;;;;;;;;;;;;;-144.99;41.54;52126.06;4983497;28;20425;-82
2022/05/23 09:53:54;;;;;;;;;;;;;;;-144.99;40.15;52081.22;4973769;28;19978;-77
2022/05/23 09:56:23;;;;;;;;;;;;;;;-144.99;40.79;52113.84;4971964;28;20356;-79
2022/05/23 09:58:50;;;;;;;;;;;;;;;-144.99;41.28;52117.91;4972956;28;19930;-79
2022/05/23 10:01:25;;;;;;;;;;;;;;;-144.99;41.26;52093.44;4971556;28;19926;-78
2022/05/23 10:03:51;;;;;;;;;;;;;;;-144.99;40.43;52113.84;4965173;28;20321;-78
2022/05/23 10:06:18;;;;;;;;;;;;;;;-144.99;40.29;52117.91;4968976;28;20044;-78
2022/05/23 10:08:45;;;;;;;;;;;;;;;-144.99;40.98;52105.69;4970939;28;20009;-78
2022/05/23 10:11:20;;;;;;;;;;;;;;;-144.99;40.73;52083.25;4973638;28;19949;-79
2022/05/23 10:13:50;;;;;;;;;;;;;;;-144.99;41.12;52077.16;4970770;28;19930;-79
2022/05/23 10:16:19;;;;;;;;;;;;;;;-144.99;41.23;52081.22;4971157;28;19937;-79
2022/05/23 10:18:49;;;;;;;;;;;;;;;-144.99;40.72;52101.59;4971206;28;19953;-78
2022/05/23 10:21:27;;;;;;;;;;;;;;;-144.99;40.19;52107.72;4971871;28;19926;-79
2022/05/23 10:24:04;;;;;;;;;;;;;;;-144.99;40.76;52097.53;4994868;23;20380;-75
2022/05/23 10:26:33;;;;;;;;;;;;;;;-144.99;39.95;52052.69;4995572;28;19925;-75
2022/05/23 10:29:04;;;;;;;;;;;;;;;-144.99;39.65;52089.38;5005613;28;20020;-75
2022/05/23 10:31:34;;;;;;;;;;;;;;;-144.99;39.35;52071.03;4993899;28;19933;-74
2022/05/23 10:34:06;;;;;;;;;;;;;;;-144.99;39.20;52089.38;4996618;28;19926;-75
2022/05/23 10:36:32;;;;;;;;;;;;;;;-144.99;38.94;52060.84;4656451;28;9999957;-75
2022/05/23 10:42:11;;;;;;;;;;;;;;;-144.99;38.56;52028.22;4984328;28;19941;-76
2022/05/23 10:44:45;;;;;;;;;;;;;;;-144.99;39.35;52113.84;4999013;28;19929;-75
2022/05/23 10:47:27;;;;;;;;;;;;;;;-144.99;39.05;52060.84;5003025;28;19929;-75
2022/05/23 10:50:00;;;;;;;;;;;;;;;-144.99;39.01;52079.19;5005386;28;20404;-75
2022/05/23 10:52:30;;;;;;;;;;;;;;;-144.99;38.77;52071.03;4994033;28;20019;-75
2022/05/23 10:55:00;;;;;;;;;;;;;;;-144.99;38.46;52087.34;5005732;28;19932;-75
2022/05/23 10:57:33;;;;;;;;;;;;;;;-144.99;38.52;52044.53;5000991;28;19925;-75
2022/05/23 11:00:03;;;;;;;;;;;;;;;-144.99;38.37;52066.97;4997546;28;20687;-75
2022/05/23 11:02:33;;;;;;;;;;;;;;;-144.99;38.70;52048.63;4988743;28;19926;-75
2022/05/23 11:05:06;;;;;;;;;;;;;;;-144.99;38.27;52069.00;4997533;28;19948;-75
2022/05/23 11:07:40;;;;;;;;;;;;;;;-144.99;37.78;52073.06;5000514;28;19962;-75
2022/05/23 11:10:14;;;;;;;;;;;;;;;-144.99;37.73;52060.84;4994993;28;20043;-75
2022/05/23 11:12:46;;;;;;;;;;;;;;;-144.99;37.25;52052.69;5000482;28;19930;-75
2022/05/23 11:15:21;;;;;;;;;;;;;;;-144.99;36.90;52024.16;4995478;28;19956;-76
2022/05/23 11:17:49;;;;;;;;;;;;;;;-144.99;37.16;52044.53;5003400;28;19933;-75
2022/05/23 11:20:21;;;;;;;;;;;;;;;-144.99;37.71;52040.47;5006762;28;19930;-74
2022/05/23 11:22:50;;;;;;;;;;;;;;;-144.99;38.17;52056.78;4995199;28;19925;-78
2022/05/23 11:25:23;;;;;;;;;;;;;;;-144.99;37.79;52064.91;5001306;28;19925;-75
2022/05/23 11:36:09;;;;;;;;;;;;;;;-144.99;37.67;52032.31;4998353;28;20403;-79
2022/05/23 11:38:42;;;;;;;;;;;;;;;-144.99;37.30;52044.53;4994555;28;20019;-75
2022/05/23 11:41:11;;;;;;;;;;;;;;;-144.99;37.30;52044.53;4998828;28;20110;-76
2022/05/23 11:43:37;;;;;;;;;;;;;;;-144.99;37.83;52016.00;5004311;28;19956;-76
2022/05/23 11:46:05;;;;;;;;;;;;;;;-144.99;37.30;52038.44;4990340;28;19926;-76
2022/05/23 11:48:43;;;;;;;;;;;;;;;-144.99;37.93;52036.38;5008132;28;20428;-76
2022/05/23 11:51:15;;;;;;;;;;;;;;;-144.99;36.95;52011.94;5004396;28;19932;-76
2022/05/23 11:53:44;;;;;;;;;;;;;;;-144.99;37.27;52016.00;5002334;28;19930;-76
2022/05/23 11:56:11;;;;;;;;;;;;;;;-144.99;36.95;52048.63;4994095;28;19930;-75
2022/05/23 11:58:40;;;;;;;;;;;;;;;-144.99;36.74;52052.69;5000235;28;19941;-75
2022/05/23 12:01:17;;;;;;;;;;;;;;;-144.99;37.08;52005.81;4991349;28;19925;-75
2022/05/23 12:04:04;;;;;;;;;;;;;;;-144.99;37.24;52020.09;5000879;28;19977;-75
2022/05/23 12:06:39;;;;;;;;;;;;;;;-144.99;37.57;52077.16;4990960;28;19937;-75
2022/05/23 12:09:23;;;;;;;;;;;;;;;-144.99;37.83;52024.16;5002816;28;20451;-75
2022/05/23 12:11:51;;;;;;;;;;;;;;;-144.99;37.83;52085.31;4997045;28;19949;-75
2022/05/23 12:14:19;;;;;;;;;;;;;;;-144.99;37.76;52093.44;5002523;28;20009;-75
2022/05/23 12:17:01;;;;;;;;;;;;;;;-144.99;37.75;52050.66;5005591;28;20009;-76
2022/05/23 12:19:32;;;;;;;;;;;;;;;-144.99;37.98;52052.69;4995939;28;19972;-76
2022/05/23 12:22:16;;;;;;;;;;;;;;;-144.99;37.67;52069.00;4999044;28;19929;-75
2022/05/23 12:25:04;;;;;;;;;;;;;;;-144.99;37.63;52075.09;4995369;28;19966;-76
2022/05/23 12:27:33;;;;;;;;;;;;;;;-144.99;37.49;52032.31;4997177;28;20022;-76
2022/05/23 12:30:17;;;;;;;;;;;;;;;-144.99;37.09;52020.09;4998000;28;19929;-75
2022/05/23 12:32:44;;;;;;;;;;;;;;;-144.99;36.97;52003.78;4993033;28;20388;-76
2022/05/23 12:35:13;;;;;;;;;;;;;;;-144.99;36.97;52044.53;5005664;28;19929;-76
2022/05/23 12:37:45;;;;;;;;;;;;;;;-144.99;36.83;52056.78;4997414;28;19934;-76
2022/05/23 12:40:20;;;;;;;;;;;;;;;-144.99;37.00;52024.16;5002398;28;20383;-77
2022/05/23 12:43:01;;;;;;;;;;;;;;;-144.99;37.07;52038.44;5002109;28;19925;-76
2022/05/23 12:45:49;;;;;;;;;;;;;;;-144.99;37.14;52093.44;4999620;28;19926;-76
2022/05/23 12:48:30;;;;;;;;;;;;;;;-144.99;37.29;52058.81;5005450;28;20399;-77
2022/05/23 12:51:05;;;;;;;;;;;;;;;-144.99;37.19;52056.78;4980008;28;19960;-77
2022/05/23 12:53:49;;;;;;;;;;;;;;;-144.99;37.58;52032.31;5002378;28;19929;-76
2022/05/23 12:56:24;;;;;;;;;;;;;;;-144.99;36.82;52069.00;4996590;28;19925;-77
2022/05/23 12:59:18;;;;;;;;;;;;;;;-144.99;36.61;52081.22;5005143;28;19929;-77
2022/05/23 13:01:45;;;;;;;;;;;;;;;-144.99;37.04;52056.78;4999694;28;20339;-76
2022/05/23 13:04:14;;;;;;;;;;;;;;;-144.99;36.98;52054.72;5006492;28;19930;-76
2022/05/23 13:06:44;;;;;;;;;;;;;;;-144.99;37.20;52075.09;5003111;28;19960;-76
2022/05/23 13:09:14;;;;;;;;;;;;;;;-144.99;37.40;52048.63;5004919;28;19925;-74
2022/05/23 13:11:43;;;;;;;;;;;;;;;-144.99;37.01;52060.84;5005017;28;19926;-74
2022/05/23 13:14:11;;;;;;;;;;;;;;;-144.99;37.13;52054.72;4996039;28;20397;-74
2022/05/23 13:16:38;;;;;;;;;;;;;;;-144.99;37.69;52048.63;5007421;28;20313;-73
2022/05/23 13:22:06;;;;;;;;;;;;;;;-144.99;37.12;52036.38;5004645;28;19941;-74
2022/05/23 13:24:53;;;;;;;;;;;;;;;-144.99;36.99;52044.53;4999682;28;19930;-74
2022/05/23 13:27:23;;;;;;;;;;;;;;;-144.99;36.77;52044.53;5000487;28;20036;-73
2022/05/23 13:29:52;;;;;;;;;;;;;;;-144.99;37.13;52064.91;4999922;28;19936;-74
2022/05/23 13:32:19;;;;;;;;;;;;;;;-144.99;36.79;52075.09;5002364;28;20356;-74